Navios*hios — SXJH — position and weather

sailwx.info

Track history (hours):
 
Tides and Currents Weather Stations Pressure Air Temp Water Temp Dewpoint Dewpoint Depression Visibility Wind Speed Wind Dir Waves Ship Positions

Navios*hios

Last reported at 2015-Feb-23 12:31 UTC. Time now 2015-Feb-27 15:27 UTC.
Position N 55°34' E 015°15'.

Length 183 m; draft 6.9 m.

Type: Cargo ship. MMSI: 240149000.

Date/timePositionNaut miles runAvg speedWind from/ knotsBaromVisibWave heightAir tempDewpointWater temp
2015-Feb-23 12:31N 55°34' E 015°15'1212.5
2015-Feb-23 11:33N 55°30' E 014°55'1312.6
2015-Feb-23 10:33N 55°23' E 014°36'1312.7
2015-Feb-23 09:33N 55°13' E 014°23'1312.6
2015-Feb-23 08:33N 55°03' E 014°10'1010.4
2015-Feb-23 07:33N 55°03' E 013°52'1010.5
2015-Feb-23 06:33N 55°06' E 013°35'1110.7
2015-Feb-23 05:33N 55°10' E 013°17'1110.7
2015-Feb-23 04:33N 55°13' E 012°59'1110.5
2015-Feb-23 03:33N 55°17' E 012°42'8 8.4
2015-Feb-23 02:33N 55°25' E 012°39'8 7.8
2015-Feb-23 01:33N 55°33' E 012°42'9 9.5
2015-Feb-23 00:33N 55°42' E 012°41'1110.8
2015-Feb-22 23:33N 55°53' E 012°40'1110.9
2015-Feb-22 22:33N 56°04' E 012°38'9 8.9
2015-Feb-22 21:33N 56°09' E 012°26'8 7.9
2015-Feb-22 20:33N 56°13' E 012°13'1210.7
2015-Feb-22 19:27N 56°22' E 011°59'1011.4
2015-Feb-22 18:33N 56°32' E 011°55'1211.6
2015-Feb-22 17:33N 56°44' E 011°53'1212.0
2015-Feb-22 16:32N 56°55' E 011°45'1111.1
2015-Feb-22 15:33N 57°05' E 011°39'1211.9
2015-Feb-22 14:33N 57°16' E 011°31'1212.2
2015-Feb-22 13:33N 57°28' E 011°24'1212.4
2015-Feb-22 12:33N 57°36' E 011°06'1312.7
2015-Feb-22 11:33N 57°45' E 010°49'1312.7
2015-Feb-22 10:33N 57°49' E 010°26'8411.5
2015-Feb-22 03:14N 57°12' E 008°06'20312.1
2015-Feb-21 10:25N 54°17' E 005°05'1012.0
2015-Feb-21 09:33N 54°07' E 004°59'1211.9
2015-Feb-21 08:33N 53°55' E 004°58'1412.8
2015-Feb-21 07:26N 53°41' E 004°52'1213.9
2015-Feb-21 06:33N 53°29' E 004°45'1514.8
2015-Feb-21 05:33N 53°16' E 004°35'1515.2
2015-Feb-21 04:32N 53°02' E 004°24'4113.6
2015-Feb-21 01:30N 52°29' E 003°43'6811.4
2015-Feb-20 19:32N 51°40' E 002°27'1211.9
2015-Feb-20 18:33N 51°31' E 002°14'9 8.8
2015-Feb-20 17:33N 51°23' E 002°11'1111.6
2015-Feb-20 16:33N 51°23' E 002°29'4 3.3
2015-Feb-20 15:29N 51°24' E 002°35'0 0.0
2015-Feb-20 14:32N 51°24' E 002°35'0 0.0
2015-Feb-20 13:17N 51°24' E 002°35'0 0.0
2015-Feb-20 12:32N 51°24' E 002°35'0 0.1
2015-Feb-20 11:32N 51°24' E 002°35'0 0.2
2015-Feb-20 10:17N 51°24' E 002°34'0 0.0
2015-Feb-20 09:32N 51°24' E 002°34'0 0.0
2015-Feb-20 08:32N 51°24' E 002°34'0 0.2
2015-Feb-20 07:32N 51°24' E 002°35'0 0.1
2015-Feb-20 06:29N 51°24' E 002°35'1 1.3
2015-Feb-20 05:32N 51°23' E 002°36'8 7.7
2015-Feb-20 04:33N 51°22' E 002°48'1010.2
2015-Feb-20 03:33N 51°25' E 003°04'1110.9
2015-Feb-20 02:33N 51°25' E 003°21'10 9.6
2015-Feb-20 01:33N 51°26' E 003°37'4 4.1
2015-Feb-20 00:33N 51°24' E 003°43'6 5.9
2015-Feb-19 23:34N 51°20' E 003°49'3 3.5
2015-Feb-19 22:33N 51°16' E 003°50'6 6.4
2015-Feb-19 21:34N 51°10' E 003°48'3 2.6
2015-Feb-19 20:34N 51°08' E 003°46'0 0.1
2015-Feb-19 19:32N 51°08' E 003°46'0 0.0
2015-Feb-19 18:32N 51°08' E 003°46'0 0.0
2015-Feb-19 17:32N 51°08' E 003°46'0 0.0
2015-Feb-19 16:30N 51°08' E 003°46'0 0.0
2015-Feb-19 15:32N 51°08' E 003°46'0 0.0
2015-Feb-19 14:32N 51°08' E 003°46'0 0.0
2015-Feb-19 13:32N 51°08' E 003°46'0 0.0
2015-Feb-19 12:31N 51°08' E 003°46'0 0.0
2015-Feb-19 11:32N 51°08' E 003°46'0 0.0
2015-Feb-19 10:31N 51°08' E 003°46'0 0.0
2015-Feb-19 09:31N 51°08' E 003°46'0 0.0
2015-Feb-19 08:31N 51°08' E 003°46'0 0.0
2015-Feb-19 07:31N 51°08' E 003°46'0 0.0
2015-Feb-19 06:25N 51°08' E 003°46'0 0.0
2015-Feb-19 05:31N 51°08' E 003°46'0 0.0
2015-Feb-19 04:31N 51°08' E 003°46'0 0.0
2015-Feb-19 03:31N 51°08' E 003°46'0 0.0
2015-Feb-19 02:31N 51°08' E 003°46'0 0.0
2015-Feb-19 01:31N 51°08' E 003°46'0 0.0
2015-Feb-19 00:31N 51°08' E 003°46'0 0.0
2015-Feb-18 23:28N 51°08' E 003°46'0 0.0
2015-Feb-18 22:31N 51°08' E 003°46'0 0.0
2015-Feb-18 21:31N 51°08' E 003°46'0 0.0
2015-Feb-18 20:31N 51°08' E 003°46'0 0.0
2015-Feb-18 19:31N 51°08' E 003°46'0 0.0
2015-Feb-18 18:31N 51°08' E 003°46'0 0.0
2015-Feb-18 17:31N 51°08' E 003°46'0 0.0
2015-Feb-18 16:31N 51°08' E 003°46'0 0.0
2015-Feb-18 15:31N 51°08' E 003°46'0 0.0
2015-Feb-18 14:31N 51°08' E 003°46'0 0.0
2015-Feb-18 13:31N 51°08' E 003°46'0 0.0
2015-Feb-18 12:31N 51°08' E 003°46'0 0.0
2015-Feb-18 11:31N 51°08' E 003°46'0 0.0
2015-Feb-18 10:31N 51°08' E 003°46'0 0.0
2015-Feb-18 09:31N 51°08' E 003°46'0 0.0
2015-Feb-18 08:31N 51°08' E 003°46'0 0.0
2015-Feb-18 07:30N 51°08' E 003°46'0 0.0
2015-Feb-18 06:31N 51°08' E 003°46'0 0.0
2015-Feb-18 05:30N 51°08' E 003°46'0 0.0
2015-Feb-18 04:33N 51°08' E 003°46'0 0.0
2015-Feb-18 03:33N 51°08' E 003°46'0 0.0
2015-Feb-18 02:33N 51°08' E 003°46'0 0.0
2015-Feb-18 01:33N 51°08' E 003°46'0 0.0
2015-Feb-18 00:33N 51°08' E 003°46'0 0.0
2015-Feb-17 23:33N 51°08' E 003°46'0 0.0
2015-Feb-17 22:30N 51°08' E 003°46'0 0.0
2015-Feb-17 21:33N 51°08' E 003°46'0 0.0
2015-Feb-17 20:30N 51°08' E 003°46'0 0.0
2015-Feb-17 19:33N 51°08' E 003°46'0 0.0
2015-Feb-17 17:30N 51°08' E 003°46'0 0.0
2015-Feb-17 16:33N 51°08' E 003°46'0 0.0
2015-Feb-17 15:30N 51°08' E 003°46'0 0.0
2015-Feb-17 14:30N 51°08' E 003°46'0 0.0
2015-Feb-17 13:33N 51°08' E 003°46'0 0.0
2015-Feb-17 12:33N 51°08' E 003°46'0 0.0
2015-Feb-17 11:30N 51°08' E 003°46'0 0.0
2015-Feb-17 10:33N 51°08' E 003°46'0 0.0
2015-Feb-17 09:33N 51°08' E 003°46'0 0.0
2015-Feb-17 08:30N 51°08' E 003°46'0 0.0
2015-Feb-17 07:30N 51°08' E 003°46'0 0.0
2015-Feb-17 06:30N 51°08' E 003°46'0 0.0
2015-Feb-17 05:30N 51°08' E 003°46'0 0.0
2015-Feb-17 04:30N 51°08' E 003°46'0 0.0
2015-Feb-17 03:30N 51°08' E 003°46'0 0.0
2015-Feb-17 02:32N 51°08' E 003°46'0 0.0
2015-Feb-17 01:29N 51°08' E 003°46'0 0.0
2015-Feb-17 00:29N 51°08' E 003°46'0 0.0
2015-Feb-16 23:32N 51°08' E 003°46'0 0.0
2015-Feb-16 22:29N 51°08' E 003°46'0 0.0
2015-Feb-16 21:29N 51°08' E 003°46'0 0.0
2015-Feb-16 20:29N 51°08' E 003°46'0 0.0
2015-Feb-16 19:32N 51°08' E 003°46'0 0.0
2015-Feb-16 18:29N 51°08' E 003°46'0 0.0
2015-Feb-16 17:29N 51°08' E 003°46'0 0.0
2015-Feb-16 16:26N 51°08' E 003°46'0 0.0
2015-Feb-16 15:29N 51°08' E 003°46'0 0.0
2015-Feb-16 14:29N 51°08' E 003°46'0 0.0
2015-Feb-16 13:26N 51°08' E 003°46'0 0.0
2015-Feb-16 12:32N 51°08' E 003°46'0 0.0
2015-Feb-16 11:32N 51°08' E 003°46'0 0.0
2015-Feb-16 10:32N 51°08' E 003°46'0 0.0
2015-Feb-16 09:32N 51°08' E 003°46'0 0.0
2015-Feb-16 08:32N 51°08' E 003°46'0 0.0
2015-Feb-16 07:32N 51°08' E 003°46'0 0.0
2015-Feb-16 06:32N 51°08' E 003°46'0 0.0
2015-Feb-16 05:29N 51°08' E 003°46'0 0.0
2015-Feb-16 04:32N 51°08' E 003°46'0 0.0
2015-Feb-16 03:29N 51°08' E 003°46'0 0.0
2015-Feb-16 02:29N 51°08' E 003°46'0 0.0
2015-Feb-16 01:32N 51°08' E 003°46'0 0.1
2015-Feb-16 00:33N 51°08' E 003°46'4 4.4
2015-Feb-15 23:33N 51°12' E 003°48'5 4.9
2015-Feb-15 22:33N 51°17' E 003°50'2 2.5
2015-Feb-15 21:34N 51°19' E 003°49'1 0.6
2015-Feb-15 20:33N 51°20' E 003°49'2 2.5
2015-Feb-15 19:33N 51°21' E 003°46'8 7.6
2015-Feb-15 18:33N 51°26' E 003°36'10 9.5
2015-Feb-15 17:33N 51°24' E 003°21'1010.3
2015-Feb-15 16:33N 51°24' E 003°05'1010.5
2015-Feb-15 15:33N 51°25' E 002°48'7 6.7
2015-Feb-15 14:32N 51°24' E 002°37'1 1.1
2015-Feb-15 13:33N 51°25' E 002°36'0 0.0
2015-Feb-15 12:30N 51°25' E 002°36'0 0.0
2015-Feb-15 11:30N 51°25' E 002°36'0 0.1
2015-Feb-15 10:33N 51°25' E 002°36'8 7.8
2015-Feb-15 09:33N 51°21' E 002°26'1313.5
2015-Feb-15 08:33N 51°14' E 002°07'1414.3
2015-Feb-15 07:33N 51°06' E 001°48'1413.6
2015-Feb-15 06:33N 50°57' E 001°32'  
Track history (hours):
 
Tides and Currents Weather Stations Pressure Air Temp Water Temp Dewpoint Dewpoint Depression Visibility Wind Speed Wind Dir Waves Ship Positions

Navios*hios

Last reported at 2015-Feb-23 12:31 UTC. Time now 2015-Feb-27 15:27 UTC.
Position N 55°34' E 015°15'.

Length 183 m; draft 6.9 m.

Type: Cargo ship. MMSI: 240149000.

Date/timePositionNaut miles runAvg speedWind from/ knotsBaromVisibWave heightAir tempDewpointWater temp
2015-Feb-23 12:31N 55°34' E 015°15'1212.5
2015-Feb-23 11:33N 55°30' E 014°55'1312.6
2015-Feb-23 10:33N 55°23' E 014°36'1312.7
2015-Feb-23 09:33N 55°13' E 014°23'1312.6
2015-Feb-23 08:33N 55°03' E 014°10'1010.4
2015-Feb-23 07:33N 55°03' E 013°52'1010.5
2015-Feb-23 06:33N 55°06' E 013°35'1110.7
2015-Feb-23 05:33N 55°10' E 013°17'1110.7
2015-Feb-23 04:33N 55°13' E 012°59'1110.5
2015-Feb-23 03:33N 55°17' E 012°42'8 8.4
2015-Feb-23 02:33N 55°25' E 012°39'8 7.8
2015-Feb-23 01:33N 55°33' E 012°42'9 9.5
2015-Feb-23 00:33N 55°42' E 012°41'1110.8
2015-Feb-22 23:33N 55°53' E 012°40'1110.9
2015-Feb-22 22:33N 56°04' E 012°38'9 8.9
2015-Feb-22 21:33N 56°09' E 012°26'8 7.9
2015-Feb-22 20:33N 56°13' E 012°13'1210.7
2015-Feb-22 19:27N 56°22' E 011°59'1011.4
2015-Feb-22 18:33N 56°32' E 011°55'1211.6
2015-Feb-22 17:33N 56°44' E 011°53'1212.0
2015-Feb-22 16:32N 56°55' E 011°45'1111.1
2015-Feb-22 15:33N 57°05' E 011°39'1211.9
2015-Feb-22 14:33N 57°16' E 011°31'1212.2
2015-Feb-22 13:33N 57°28' E 011°24'1212.4
2015-Feb-22 12:33N 57°36' E 011°06'1312.7
2015-Feb-22 11:33N 57°45' E 010°49'1312.7
2015-Feb-22 10:33N 57°49' E 010°26'8411.5
2015-Feb-22 03:14N 57°12' E 008°06'20312.1
2015-Feb-21 10:25N 54°17' E 005°05'1012.0
2015-Feb-21 09:33N 54°07' E 004°59'1211.9
2015-Feb-21 08:33N 53°55' E 004°58'1412.8
2015-Feb-21 07:26N 53°41' E 004°52'1213.9
2015-Feb-21 06:33N 53°29' E 004°45'1514.8
2015-Feb-21 05:33N 53°16' E 004°35'1515.2
2015-Feb-21 04:32N 53°02' E 004°24'4113.6
2015-Feb-21 01:30N 52°29' E 003°43'6811.4
2015-Feb-20 19:32N 51°40' E 002°27'1211.9
2015-Feb-20 18:33N 51°31' E 002°14'9 8.8
2015-Feb-20 17:33N 51°23' E 002°11'1111.6
2015-Feb-20 16:33N 51°23' E 002°29'4 3.3
2015-Feb-20 15:29N 51°24' E 002°35'0 0.0
2015-Feb-20 14:32N 51°24' E 002°35'0 0.0
2015-Feb-20 13:17N 51°24' E 002°35'0 0.0
2015-Feb-20 12:32N 51°24' E 002°35'0 0.1
2015-Feb-20 11:32N 51°24' E 002°35'0 0.2
2015-Feb-20 10:17N 51°24' E 002°34'0 0.0
2015-Feb-20 09:32N 51°24' E 002°34'0 0.0
2015-Feb-20 08:32N 51°24' E 002°34'0 0.2
2015-Feb-20 07:32N 51°24' E 002°35'0 0.1
2015-Feb-20 06:29N 51°24' E 002°35'1 1.3
2015-Feb-20 05:32N 51°23' E 002°36'8 7.7
2015-Feb-20 04:33N 51°22' E 002°48'1010.2
2015-Feb-20 03:33N 51°25' E 003°04'1110.9
2015-Feb-20 02:33N 51°25' E 003°21'10 9.6
2015-Feb-20 01:33N 51°26' E 003°37'4 4.1
2015-Feb-20 00:33N 51°24' E 003°43'6 5.9
2015-Feb-19 23:34N 51°20' E 003°49'3 3.5
2015-Feb-19 22:33N 51°16' E 003°50'6 6.4
2015-Feb-19 21:34N 51°10' E 003°48'3 2.6
2015-Feb-19 20:34N 51°08' E 003°46'0 0.1
2015-Feb-19 19:32N 51°08' E 003°46'0 0.0
2015-Feb-19 18:32N 51°08' E 003°46'0 0.0
2015-Feb-19 17:32N 51°08' E 003°46'0 0.0
2015-Feb-19 16:30N 51°08' E 003°46'0 0.0
2015-Feb-19 15:32N 51°08' E 003°46'0 0.0
2015-Feb-19 14:32N 51°08' E 003°46'0 0.0
2015-Feb-19 13:32N 51°08' E 003°46'0 0.0
2015-Feb-19 12:31N 51°08' E 003°46'0 0.0
2015-Feb-19 11:32N 51°08' E 003°46'0 0.0
2015-Feb-19 10:31N 51°08' E 003°46'0 0.0
2015-Feb-19 09:31N 51°08' E 003°46'0 0.0
2015-Feb-19 08:31N 51°08' E 003°46'0 0.0
2015-Feb-19 07:31N 51°08' E 003°46'0 0.0
2015-Feb-19 06:25N 51°08' E 003°46'0 0.0
2015-Feb-19 05:31N 51°08' E 003°46'0 0.0
2015-Feb-19 04:31N 51°08' E 003°46'0 0.0
2015-Feb-19 03:31N 51°08' E 003°46'0 0.0
2015-Feb-19 02:31N 51°08' E 003°46'0 0.0
2015-Feb-19 01:31N 51°08' E 003°46'0 0.0
2015-Feb-19 00:31N 51°08' E 003°46'0 0.0
2015-Feb-18 23:28N 51°08' E 003°46'0 0.0
2015-Feb-18 22:31N 51°08' E 003°46'0 0.0
2015-Feb-18 21:31N 51°08' E 003°46'0 0.0
2015-Feb-18 20:31N 51°08' E 003°46'0 0.0
2015-Feb-18 19:31N 51°08' E 003°46'0 0.0
2015-Feb-18 18:31N 51°08' E 003°46'0 0.0
2015-Feb-18 17:31N 51°08' E 003°46'0 0.0
2015-Feb-18 16:31N 51°08' E 003°46'0 0.0
2015-Feb-18 15:31N 51°08' E 003°46'0 0.0
2015-Feb-18 14:31N 51°08' E 003°46'0 0.0
2015-Feb-18 13:31N 51°08' E 003°46'0 0.0
2015-Feb-18 12:31N 51°08' E 003°46'0 0.0
2015-Feb-18 11:31N 51°08' E 003°46'0 0.0
2015-Feb-18 10:31N 51°08' E 003°46'0 0.0
2015-Feb-18 09:31N 51°08' E 003°46'0 0.0
2015-Feb-18 08:31N 51°08' E 003°46'0 0.0
2015-Feb-18 07:30N 51°08' E 003°46'0 0.0
2015-Feb-18 06:31N 51°08' E 003°46'0 0.0
2015-Feb-18 05:30N 51°08' E 003°46'0 0.0
2015-Feb-18 04:33N 51°08' E 003°46'0 0.0
2015-Feb-18 03:33N 51°08' E 003°46'0 0.0
2015-Feb-18 02:33N 51°08' E 003°46'0 0.0
2015-Feb-18 01:33N 51°08' E 003°46'0 0.0
2015-Feb-18 00:33N 51°08' E 003°46'0 0.0
2015-Feb-17 23:33N 51°08' E 003°46'0 0.0
2015-Feb-17 22:30N 51°08' E 003°46'0 0.0
2015-Feb-17 21:33N 51°08' E 003°46'0 0.0
2015-Feb-17 20:30N 51°08' E 003°46'0 0.0
2015-Feb-17 19:33N 51°08' E 003°46'0 0.0
2015-Feb-17 17:30N 51°08' E 003°46'0 0.0
2015-Feb-17 16:33N 51°08' E 003°46'0 0.0
2015-Feb-17 15:30N 51°08' E 003°46'0 0.0
2015-Feb-17 14:30N 51°08' E 003°46'0 0.0
2015-Feb-17 13:33N 51°08' E 003°46'0 0.0
2015-Feb-17 12:33N 51°08' E 003°46'0 0.0
2015-Feb-17 11:30N 51°08' E 003°46'0 0.0
2015-Feb-17 10:33N 51°08' E 003°46'0 0.0
2015-Feb-17 09:33N 51°08' E 003°46'0 0.0
2015-Feb-17 08:30N 51°08' E 003°46'0 0.0
2015-Feb-17 07:30N 51°08' E 003°46'0 0.0
2015-Feb-17 06:30N 51°08' E 003°46'0 0.0
2015-Feb-17 05:30N 51°08' E 003°46'0 0.0
2015-Feb-17 04:30N 51°08' E 003°46'0 0.0
2015-Feb-17 03:30N 51°08' E 003°46'0 0.0
2015-Feb-17 02:32N 51°08' E 003°46'0 0.0
2015-Feb-17 01:29N 51°08' E 003°46'0 0.0
2015-Feb-17 00:29N 51°08' E 003°46'0 0.0
2015-Feb-16 23:32N 51°08' E 003°46'0 0.0
2015-Feb-16 22:29N 51°08' E 003°46'0 0.0
2015-Feb-16 21:29N 51°08' E 003°46'0 0.0
2015-Feb-16 20:29N 51°08' E 003°46'0 0.0
2015-Feb-16 19:32N 51°08' E 003°46'0 0.0
2015-Feb-16 18:29N 51°08' E 003°46'0 0.0
2015-Feb-16 17:29N 51°08' E 003°46'0 0.0
2015-Feb-16 16:26N 51°08' E 003°46'0 0.0
2015-Feb-16 15:29N 51°08' E 003°46'0 0.0
2015-Feb-16 14:29N 51°08' E 003°46'0 0.0
2015-Feb-16 13:26N 51°08' E 003°46'0 0.0
2015-Feb-16 12:32N 51°08' E 003°46'0 0.0
2015-Feb-16 11:32N 51°08' E 003°46'0 0.0
2015-Feb-16 10:32N 51°08' E 003°46'0 0.0
2015-Feb-16 09:32N 51°08' E 003°46'0 0.0
2015-Feb-16 08:32N 51°08' E 003°46'0 0.0
2015-Feb-16 07:32N 51°08' E 003°46'0 0.0
2015-Feb-16 06:32N 51°08' E 003°46'0 0.0
2015-Feb-16 05:29N 51°08' E 003°46'0 0.0
2015-Feb-16 04:32N 51°08' E 003°46'0 0.0
2015-Feb-16 03:29N 51°08' E 003°46'0 0.0
2015-Feb-16 02:29N 51°08' E 003°46'0 0.0
2015-Feb-16 01:32N 51°08' E 003°46'0 0.1
2015-Feb-16 00:33N 51°08' E 003°46'4 4.4
2015-Feb-15 23:33N 51°12' E 003°48'5 4.9
2015-Feb-15 22:33N 51°17' E 003°50'2 2.5
2015-Feb-15 21:34N 51°19' E 003°49'1 0.6
2015-Feb-15 20:33N 51°20' E 003°49'2 2.5
2015-Feb-15 19:33N 51°21' E 003°46'8 7.6
2015-Feb-15 18:33N 51°26' E 003°36'10 9.5
2015-Feb-15 17:33N 51°24' E 003°21'1010.3
2015-Feb-15 16:33N 51°24' E 003°05'1010.5
2015-Feb-15 15:33N 51°25' E 002°48'7 6.7
2015-Feb-15 14:32N 51°24' E 002°37'1 1.1
2015-Feb-15 13:33N 51°25' E 002°36'0 0.0
2015-Feb-15 12:30N 51°25' E 002°36'0 0.0
2015-Feb-15 11:30N 51°25' E 002°36'0 0.1
2015-Feb-15 10:33N 51°25' E 002°36'8 7.8
2015-Feb-15 09:33N 51°21' E 002°26'1313.5
2015-Feb-15 08:33N 51°14' E 002°07'1414.3
2015-Feb-15 07:33N 51°06' E 001°48'1413.6
2015-Feb-15 06:33N 50°57' E 001°32'  

Dump ship's entire track history